Urbana, Ohio
Current Conditions -  °F | °C
As of 1:30 PM on Wednesday 26 Nov 2014 (Local Time) from KEDJ Reporting Station
Overcast Overcast  
Wind Chill: 30°   Ceiling: 2300
Heat Index: 30°   Visibility: 10mi
Dew Point: 25°   Wind: 3mph
Humidity: 80%   Direction: 350°N
Pressure: 30.07"   Gusts: NA
Location:  40.11°N, 83.75°W
Report Text: KEDJ 261830Z AUTO 35003KT 10SM FEW018 OVC023 M01/M04 A3007 RMK AO1
Loading
Personal Weather Stations






























Interactive Weather Map New forecast layout! Learn more

10-Day Weather Forecast

Advertisements
Track Severe Weather on mobile